Negril Point, Jamaica

4:59 PM EST on August 04, 2015 (GMT -0500)
Hedonism II, Negril, Jamaica | | Change Station
CLOSE
Current Station
Personal Weather Station
Location: Jamaica,
Elevation: 39 ft
Nearby Weather Stations

Elev 39 ft 18.34 °N, 78.34 °W | Updated 1 minute ago

Partly Cloudy
Partly Cloudy
88.3 °F
Feels Like 102 °F
N
0.0
Wind Variable Wind from ENE
Gusts 0.0 mph

Today
High -- | Low -- °F
--% Chance of Precip.
Yesterday
High -- | Low -- °F
Precip. -- in
5:52 AM 6:46 PM
Waning Gibbous, 74% visible
Pressure 29.92 in
Visibility 6.2 miles
Clouds Scattered Clouds 1800 ft
Few 2000 ft
Heat Index 102 °F
Dew Point 78 °F
Humidity 72%
Rainfall 0.37 in
Snow Depth Not available.
UV 6 out of 12
Pollen Not available.
Air Quality Not available.
Flu Activity Not available.
METAR MKJS 042100Z 09013KT 9999 SCT018 FEW020CB 30/24 Q1013 RETSRA

More Conditions Fewer Conditions

Pressure 29.92 in
Visibility 6.2 miles
Clouds Scattered Clouds 1800 ft
Few 2000 ft
Heat Index 102 °F
Dew Point 78 °F
Humidity 72%
Rainfall 0.37 in
Snow Depth Not available.
UV 6 out of 12
Pollen Not available.
Air Quality Not available.
Flu Activity Not available.
METAR MKJS 042100Z 09013KT 9999 SCT018 FEW020CB 30/24 Q1013 RETSRA

More Conditions Fewer Conditions

10-Day Weather Forecast

×

Almanac

Astronomy

Aug. 04, 2015 Rise Set
Actual Time
Civil Twilight
Nautical Twilight
Astronomical Twilight
Moon
Length of Visible Light
Length of Day
Tomorrow will be .
, % of the Moon is Illuminated

Today's Extremes

Country Highs Country Lows

Community

WunderPhotos

Upload Photos

1,843,992 photos uploaded!

WunderBlogs® & News

Nearby

Air Quality

  Air Quality AQ Index Pollutant
Not available.

Snow Depth

Station Depth Elevation

Earthquake Activity

City Distance Mag. Time & Date
Minimum magnitude displayed is 2.5.

Coastal Water Temperatures

Place Temperature

Stations

Nearby Weather Stations

Station Location Temp. Windchill Dew Point Humidity Wind Precip. Elev Updated Type